Time;durP1;ratioP1;P1;durP2;ratioP2;P2;SDS_P1;SDS_P2;PMS_P1;PMS_P2;Temp;Humidity;BMP_temperature;BMP_pressure;BME280_temperature;BME280_humidity;BME280_pressure;Samples;Min_cycle;Max_cycle;Signal;HPM_P1;HPM_P2
2022/09/03 00:00:20;;;;;;;2.35;0.50;;;16.70;99.90;;;;;;5005271;28;20041;-67
2022/09/03 00:03:21;;;;;;;4.22;0.60;;;16.70;99.90;;;;;;5040948;28;20049;-67
2022/09/03 00:05:55;;;;;;;1.95;0.60;;;16.60;99.90;;;;;;5029162;28;20407;-67
2022/09/03 00:08:31;;;;;;;2.15;0.40;;;16.50;99.90;;;;;;5010048;28;20047;-67
2022/09/03 00:11:22;;;;;;;5.25;0.57;;;16.50;99.90;;;;;;5026598;28;20080;-67
2022/09/03 00:13:56;;;;;;;2.38;0.50;;;16.40;99.90;;;;;;5033256;28;20053;-67
2022/09/03 00:16:27;;;;;;;5.30;0.60;;;16.40;99.90;;;;;;5033245;28;20486;-68
2022/09/03 00:18:59;;;;;;;2.73;0.50;;;16.40;99.90;;;;;;5018756;28;20052;-67
2022/09/03 00:21:35;;;;;;;8.00;0.70;;;16.40;99.90;;;;;;5042308;28;21123;-66
2022/09/03 00:24:05;;;;;;;3.17;0.43;;;16.40;99.90;;;;;;5019217;28;20133;-67
2022/09/03 00:26:34;;;;;;;9.63;0.75;;;16.30;99.90;;;;;;5031240;28;20128;-67
2022/09/03 00:29:15;;;;;;;3.08;0.40;;;16.40;99.90;;;;;;5020641;28;20047;-67
2022/09/03 00:31:52;;;;;;;1.10;0.43;;;16.40;99.90;;;;;;5038241;28;20068;-66
2022/09/03 00:34:26;;;;;;;2.05;0.50;;;16.40;99.90;;;;;;5023338;28;20806;-66
2022/09/03 00:36:52;;;;;;;1.63;0.50;;;16.40;99.90;;;;;;5027717;28;20082;-67
2022/09/03 00:39:21;;;;;;;5.82;0.40;;;16.30;99.90;;;;;;5007519;28;20041;-67
2022/09/03 00:42:11;;;;;;;1.08;0.30;;;16.40;99.90;;;;;;5020920;28;20088;-66
2022/09/03 00:45:14;;;;;;;2.65;0.60;;;16.40;99.90;;;;;;5019322;28;20514;-66
2022/09/03 00:47:56;;;;;;;2.42;0.40;;;16.30;99.90;;;;;;4998749;28;20090;-67
2022/09/03 00:50:45;;;;;;;2.47;0.30;;;16.30;99.90;;;;;;5022853;28;20141;-66
2022/09/03 00:53:22;;;;;;;2.33;0.55;;;16.30;99.90;;;;;;5020628;28;20052;-67
2022/09/03 00:55:57;;;;;;;3.00;0.45;;;16.30;99.90;;;;;;5039265;28;20057;-67
2022/09/03 00:58:54;;;;;;;1.88;0.47;;;16.20;99.90;;;;;;5009431;28;20041;-67
2022/09/03 01:01:41;;;;;;;1.95;0.50;;;16.20;99.90;;;;;;5021086;28;20500;-66
2022/09/03 01:04:34;;;;;;;1.63;0.52;;;16.20;99.90;;;;;;5020034;28;20951;-67
2022/09/03 01:07:17;;;;;;;2.88;0.50;;;16.20;99.90;;;;;;5009504;28;20041;-67
2022/09/03 01:09:57;;;;;;;1.60;0.40;;;16.10;99.90;;;;;;5004731;28;20670;-67
2022/09/03 01:13:07;;;;;;;2.50;0.70;;;16.10;99.90;;;;;;5040281;28;20049;-67
2022/09/03 01:15:54;;;;;;;3.22;0.60;;;16.10;99.90;;;;;;5029045;28;20056;-66
2022/09/03 01:18:32;;;;;;;1.73;0.60;;;16.00;99.90;;;;;;5008132;28;20041;-66
2022/09/03 01:21:07;;;;;;;2.85;0.60;;;15.90;99.90;;;;;;5022829;28;20106;-67
2022/09/03 01:23:39;;;;;;;1.40;0.38;;;15.90;99.90;;;;;;5022917;28;20081;-66
2022/09/03 01:26:13;;;;;;;;;;;15.90;99.90;;;;;;5041124;28;20175;-66
2022/09/03 01:29:05;;;;;;;2.28;0.50;;;15.80;99.90;;;;;;5033681;28;19964;-66
2022/09/03 01:31:56;;;;;;;2.83;0.32;;;15.70;99.90;;;;;;5039439;28;20540;-66
2022/09/03 01:35:09;;;;;;;3.00;0.63;;;15.70;99.90;;;;;;5036689;28;20045;-66
2022/09/03 01:38:04;;;;;;;4.10;0.55;;;15.70;99.90;;;;;;4955767;28;20062;-67
2022/09/03 01:42:12;;;;;;;3.50;0.25;;;15.60;99.90;;;;;;4960311;28;20074;-66
2022/09/03 01:43:53;;;;;;;1.42;0.50;;;15.50;99.90;;;;;;5018994;28;20124;-67
2022/09/03 01:46:25;;;;;;;2.30;0.52;;;15.50;99.90;;;;;;5032299;28;20118;-67
2022/09/03 01:49:12;;;;;;;3.42;0.50;;;15.40;99.90;;;;;;5038212;28;20060;-67
2022/09/03 01:51:40;;;;;;;3.15;0.50;;;15.40;99.90;;;;;;5019616;28;20536;-66
2022/09/03 01:54:09;;;;;;;2.80;0.60;;;15.40;99.90;;;;;;5035617;28;20076;-66
2022/09/03 01:56:56;;;;;;;2.78;0.45;;;15.20;99.90;;;;;;5008807;28;20053;-66
2022/09/03 01:59:30;;;;;;;3.33;0.70;;;14.80;99.90;;;;;;5040969;28;20410;-67
2022/09/03 02:02:01;;;;;;;4.03;0.63;;;14.50;99.90;;;;;;5038571;28;20052;-66
2022/09/03 02:04:27;;;;;;;0.93;0.60;;;14.30;99.90;;;;;;5035376;28;20048;-66
2022/09/03 02:06:56;;;;;;;4.55;0.80;;;14.00;99.90;;;;;;4994300;28;20411;-66
2022/09/03 02:09:23;;;;;;;1.48;0.75;;;13.90;99.90;;;;;;5021173;28;20459;-66
2022/09/03 02:12:04;;;;;;;0.73;0.50;;;13.70;99.90;;;;;;5022599;28;20583;-66
2022/09/03 02:14:31;;;;;;;4.07;0.70;;;13.60;99.90;;;;;;5018959;28;20083;-66
2022/09/03 02:17:00;;;;;;;2.47;0.80;;;13.50;99.90;;;;;;5006207;28;20056;-66
2022/09/03 02:19:27;;;;;;;4.47;0.80;;;13.40;99.90;;;;;;5024362;28;20038;-66
2022/09/03 02:21:55;;;;;;;2.85;0.60;;;13.30;99.90;;;;;;5022725;28;20128;-66
2022/09/03 02:24:22;;;;;;;1.15;0.73;;;13.30;99.90;;;;;;5021188;28;20037;-65
2022/09/03 02:26:48;;;;;;;2.38;0.98;;;13.30;99.90;;;;;;5023826;28;20057;-66
2022/09/03 02:29:16;;;;;;;4.40;0.90;;;13.20;99.90;;;;;;5023438;28;20037;-66
2022/09/03 02:31:42;;;;;;;3.20;0.70;;;13.20;99.90;;;;;;5043251;28;20045;-66
2022/09/03 02:34:08;;;;;;;2.90;0.95;;;13.20;99.90;;;;;;5039503;28;20182;-66
2022/09/03 02:36:41;;;;;;;1.50;0.77;;;13.10;99.90;;;;;;5029583;28;20502;-67
2022/09/03 02:39:07;;;;;;;1.50;0.73;;;13.10;99.90;;;;;;5041424;28;20046;-66
2022/09/03 02:41:33;;;;;;;3.17;1.00;;;13.10;99.90;;;;;;5039840;28;20041;-66
2022/09/03 02:44:11;;;;;;;3.33;0.90;;;13.10;99.90;;;;;;5019397;28;20045;-66
2022/09/03 02:46:50;;;;;;;2.78;0.98;;;13.10;99.90;;;;;;5009760;28;20053;-66
2022/09/03 02:49:16;;;;;;;2.15;1.25;;;13.10;99.90;;;;;;5006178;28;20404;-66
2022/09/03 02:51:43;;;;;;;1.77;0.85;;;13.00;99.90;;;;;;5024387;28;20045;-66
2022/09/03 02:54:10;;;;;;;3.25;0.88;;;13.00;99.90;;;;;;5027062;28;20091;-66
2022/09/03 02:56:36;;;;;;;1.20;0.80;;;13.00;99.90;;;;;;4994007;28;20045;-66
2022/09/03 02:59:07;;;;;;;3.85;0.80;;;12.90;99.90;;;;;;5022921;28;20038;-65
2022/09/03 03:01:34;;;;;;;4.28;1.00;;;12.90;99.90;;;;;;5023814;28;20048;-65
2022/09/03 03:04:00;;;;;;;1.85;0.75;;;12.80;99.90;;;;;;5040737;28;20041;-66
2022/09/03 03:06:26;;;;;;;2.50;0.80;;;12.70;99.90;;;;;;5012608;28;20544;-66
2022/09/03 03:08:54;;;;;;;1.02;0.80;;;12.60;99.90;;;;;;5020162;28;20048;-66
2022/09/03 03:11:21;;;;;;;2.75;0.80;;;12.60;99.90;;;;;;5024352;28;20147;-65
2022/09/03 03:13:47;;;;;;;3.05;0.70;;;12.70;99.90;;;;;;5039435;28;20071;-65
2022/09/03 03:16:14;;;;;;;2.08;0.85;;;12.60;99.90;;;;;;5019833;28;20053;-66
2022/09/03 03:18:39;;;;;;;2.38;1.17;;;12.60;99.90;;;;;;5036253;28;20041;-66
2022/09/03 03:21:12;;;;;;;2.00;0.75;;;12.60;99.90;;;;;;5041643;28;20041;-65
2022/09/03 03:23:38;;;;;;;2.10;0.80;;;12.50;99.90;;;;;;5020147;28;20459;-65
2022/09/03 03:26:09;;;;;;;2.47;0.77;;;12.60;99.90;;;;;;5023678;28;20049;-65
2022/09/03 03:28:36;;;;;;;3.15;0.80;;;12.40;99.90;;;;;;5000320;28;20049;-65
2022/09/03 03:31:11;;;;;;;2.13;0.80;;;12.70;99.90;;;;;;5045391;28;20122;-66
2022/09/03 03:33:38;;;;;;;1.77;0.90;;;12.60;99.90;;;;;;5041239;28;20571;-65
2022/09/03 03:36:10;;;;;;;4.10;1.00;;;12.60;99.90;;;;;;5022419;28;20088;-66
2022/09/03 03:38:36;;;;;;;1.20;0.65;;;12.60;99.90;;;;;;5034108;28;20530;-66
2022/09/03 03:41:20;;;;;;;3.60;0.90;;;12.60;99.90;;;;;;5021973;28;20099;-66
2022/09/03 03:43:47;;;;;;;4.43;1.08;;;12.60;99.90;;;;;;5022327;28;20049;-66
2022/09/03 03:46:13;;;;;;;3.13;1.05;;;12.60;99.90;;;;;;5015883;28;20607;-66
2022/09/03 03:48:39;;;;;;;3.42;1.05;;;12.70;99.90;;;;;;5019565;28;20047;-66
2022/09/03 03:51:07;;;;;;;3.78;1.00;;;12.70;99.90;;;;;;5025013;28;20061;-65
2022/09/03 03:53:35;;;;;;;4.40;0.77;;;12.70;99.90;;;;;;5024494;28;20047;-66
2022/09/03 03:56:02;;;;;;;2.72;0.80;;;12.60;99.90;;;;;;5046592;28;20045;-65
2022/09/03 03:58:30;;;;;;;3.00;0.70;;;12.70;99.90;;;;;;5009476;28;20073;-66
2022/09/03 04:01:10;;;;;;;1.58;1.13;;;12.80;99.90;;;;;;5041964;28;20055;-66
2022/09/03 04:03:36;;;;;;;1.20;0.80;;;12.80;99.90;;;;;;5041149;28;20053;-66
2022/09/03 04:06:03;;;;;;;3.20;0.90;;;12.90;99.90;;;;;;5042895;28;20068;-66
2022/09/03 04:08:29;;;;;;;1.77;0.80;;;12.80;99.90;;;;;;5028521;28;20037;-65
2022/09/03 04:11:00;;;;;;;3.80;0.70;;;12.90;99.90;;;;;;5021822;28;20155;-66
2022/09/03 04:13:30;;;;;;;2.65;0.90;;;12.90;99.90;;;;;;5021858;28;20437;-66
2022/09/03 04:16:04;;;;;;;2.97;0.90;;;13.00;99.90;;;;;;5041114;28;20440;-66
2022/09/03 04:18:31;;;;;;;3.15;0.80;;;13.00;99.90;;;;;;5026355;28;20292;-66
2022/09/03 04:21:05;;;;;;;3.22;0.90;;;13.10;99.90;;;;;;5041002;28;20051;-66
2022/09/03 04:23:32;;;;;;;3.53;0.80;;;13.20;99.90;;;;;;5037106;28;20048;-65
2022/09/03 04:25:58;;;;;;;1.38;0.90;;;13.20;99.90;;;;;;5042192;28;20033;-66
2022/09/03 04:28:24;;;;;;;1.52;0.90;;;13.30;99.90;;;;;;5009368;28;20657;-66
2022/09/03 04:30:50;;;;;;;4.53;0.98;;;13.30;99.90;;;;;;5041390;28;20052;-66
2022/09/03 04:33:15;;;;;;;1.75;0.90;;;13.40;99.90;;;;;;5037784;28;20455;-65
2022/09/03 04:35:42;;;;;;;4.88;0.88;;;13.40;99.90;;;;;;5023250;28;20064;-66
2022/09/03 04:38:08;;;;;;;4.55;1.00;;;13.50;99.90;;;;;;5009864;28;20054;-66
2022/09/03 04:40:33;;;;;;;3.40;1.05;;;13.40;99.90;;;;;;5044314;28;20377;-66
2022/09/03 04:42:59;;;;;;;4.18;1.08;;;13.40;99.90;;;;;;5046015;28;20056;-66
2022/09/03 04:45:27;;;;;;;1.77;1.08;;;13.40;99.90;;;;;;5041681;28;20405;-65
2022/09/03 04:48:12;;;;;;;2.38;1.00;;;13.40;99.90;;;;;;5009392;28;20067;-66
2022/09/03 04:50:37;;;;;;;4.05;1.00;;;13.40;99.90;;;;;;5041298;28;20070;-66
2022/09/03 04:53:04;;;;;;;2.17;0.98;;;13.40;99.90;;;;;;5019633;28;20049;-65
2022/09/03 04:55:37;;;;;;;3.30;1.15;;;13.30;99.90;;;;;;5040677;28;20045;-66
2022/09/03 04:58:04;;;;;;;1.50;0.90;;;13.40;99.90;;;;;;5008344;28;20065;-66
2022/09/03 05:00:29;;;;;;;1.65;0.90;;;13.40;99.90;;;;;;5024954;28;20029;-66
2022/09/03 05:02:58;;;;;;;2.00;0.75;;;13.40;99.90;;;;;;5025714;28;20056;-66
2022/09/03 05:05:24;;;;;;;1.98;1.13;;;13.50;99.90;;;;;;5024696;28;20433;-65
2022/09/03 05:07:50;;;;;;;3.25;1.10;;;13.50;99.90;;;;;;5024019;28;20126;-66
2022/09/03 05:10:19;;;;;;;3.95;1.42;;;13.50;99.90;;;;;;5041978;28;20048;-66
2022/09/03 05:12:46;;;;;;;2.58;1.05;;;13.50;99.90;;;;;;5040086;28;20148;-66
2022/09/03 05:15:12;;;;;;;2.45;0.90;;;13.50;99.90;;;;;;5038595;28;20094;-66
2022/09/03 05:17:38;;;;;;;2.95;1.02;;;13.50;99.90;;;;;;5008094;28;20447;-66
2022/09/03 05:20:06;;;;;;;2.35;1.10;;;13.50;99.90;;;;;;5021029;28;20037;-66
2022/09/03 05:22:33;;;;;;;1.30;1.10;;;13.50;99.90;;;;;;5039835;28;20041;-66
2022/09/03 05:24:59;;;;;;;3.17;1.20;;;13.50;99.90;;;;;;5023212;28;20103;-66
2022/09/03 05:27:25;;;;;;;1.60;1.35;;;13.60;99.90;;;;;;5004690;28;20049;-66
2022/09/03 05:29:50;;;;;;;2.03;1.00;;;13.60;99.90;;;;;;5020193;28;20048;-66
2022/09/03 05:32:16;;;;;;;2.72;1.20;;;13.60;99.90;;;;;;5041273;28;20815;-66
2022/09/03 05:34:42;;;;;;;2.63;1.20;;;13.70;99.90;;;;;;5040585;28;20043;-66
2022/09/03 05:37:09;;;;;;;4.13;1.05;;;13.80;99.90;;;;;;5026867;28;20049;-66
2022/09/03 05:39:34;;;;;;;3.45;1.10;;;13.90;99.90;;;;;;5025165;28;20133;-66
2022/09/03 05:42:00;;;;;;;1.95;1.15;;;13.90;99.90;;;;;;5024387;28;20137;-66
2022/09/03 05:44:26;;;;;;;2.10;1.08;;;14.10;99.90;;;;;;5022471;28;20136;-67
2022/09/03 05:46:52;;;;;;;2.28;0.80;;;14.20;99.90;;;;;;5010211;28;20045;-67
2022/09/03 05:49:18;;;;;;;1.20;0.80;;;14.20;99.90;;;;;;5039876;28;20053;-66
2022/09/03 05:51:43;;;;;;;2.97;0.93;;;14.30;99.90;;;;;;5020526;28;20108;-67
2022/09/03 05:54:10;;;;;;;4.45;1.38;;;14.30;99.90;;;;;;5037774;28;20084;-66
2022/09/03 05:56:38;;;;;;;2.30;0.90;;;14.30;99.90;;;;;;5008025;28;20044;-67
2022/09/03 05:59:08;;;;;;;1.85;1.00;;;14.40;99.90;;;;;;5021417;28;20536;-66
2022/09/03 06:01:39;;;;;;;2.42;1.10;;;14.40;99.90;;;;;;5020179;28;20570;-67
2022/09/03 06:04:10;;;;;;;3.15;1.17;;;14.50;99.90;;;;;;5038090;28;20328;-67
2022/09/03 06:06:39;;;;;;;1.80;1.15;;;14.50;99.90;;;;;;5028117;28;20442;-67
2022/09/03 06:09:14;;;;;;;1.80;1.00;;;14.60;99.90;;;;;;5022098;28;20533;-66
2022/09/03 06:11:41;;;;;;;1.83;1.00;;;14.70;99.90;;;;;;5042601;28;20403;-67
2022/09/03 06:14:10;;;;;;;4.57;1.20;;;14.80;99.90;;;;;;5043520;28;20048;-67
2022/09/03 06:16:42;;;;;;;4.65;1.50;;;15.00;99.90;;;;;;5027326;28;20500;-67
2022/09/03 06:19:09;;;;;;;2.30;1.27;;;15.20;99.90;;;;;;5021856;28;20509;-67
2022/09/03 06:21:36;;;;;;;1.55;1.10;;;15.30;99.90;;;;;;5041874;28;20049;-67
2022/09/03 06:24:02;;;;;;;3.65;1.08;;;15.50;99.90;;;;;;5040605;28;20041;-67
2022/09/03 06:26:28;;;;;;;3.78;1.00;;;15.60;99.90;;;;;;5031290;28;20465;-67
2022/09/03 06:28:55;;;;;;;1.73;1.08;;;15.60;99.90;;;;;;5024448;28;20057;-67
2022/09/03 06:31:21;;;;;;;3.80;1.23;;;15.70;99.90;;;;;;5046802;28;20049;-67
2022/09/03 06:33:48;;;;;;;1.73;1.00;;;15.80;99.90;;;;;;5046134;28;20048;-67
2022/09/03 06:36:16;;;;;;;4.72;1.23;;;15.90;99.90;;;;;;5037698;28;20045;-69
2022/09/03 06:38:43;;;;;;;2.38;0.82;;;15.90;99.90;;;;;;5022025;28;20037;-67
2022/09/03 06:41:23;;;;;;;2.45;1.08;;;16.00;99.90;;;;;;5025967;28;20048;-67
2022/09/03 06:43:51;;;;;;;1.50;0.80;;;16.00;99.90;;;;;;5042149;28;20497;-67
2022/09/03 06:46:22;;;;;;;2.38;1.23;;;16.10;99.90;;;;;;5012921;28;20057;-68
2022/09/03 06:48:49;;;;;;;4.35;1.00;;;16.10;99.90;;;;;;5023176;28;20055;-68
2022/09/03 06:51:21;;;;;;;2.83;1.20;;;16.20;99.90;;;;;;5025876;28;20056;-68
2022/09/03 06:53:58;;;;;;;6.05;0.93;;;16.20;99.90;;;;;;5042408;28;20535;-67
2022/09/03 06:56:27;;;;;;;2.50;0.80;;;16.20;99.90;;;;;;5012024;28;20228;-68
2022/09/03 06:58:55;;;;;;;2.88;1.10;;;16.10;99.90;;;;;;5022520;28;20048;-67
2022/09/03 07:01:24;;;;;;;4.90;0.90;;;16.10;99.90;;;;;;5025310;28;20053;-67
2022/09/03 07:03:56;;;;;;;1.52;1.00;;;16.30;99.90;;;;;;5041146;28;20041;-68
2022/09/03 07:06:23;;;;;;;3.28;1.10;;;16.30;99.90;;;;;;5014206;28;20040;-67
2022/09/03 07:08:49;;;;;;;4.35;1.08;;;16.30;99.90;;;;;;5021485;28;20086;-67
2022/09/03 07:11:18;;;;;;;1.88;0.95;;;16.40;99.90;;;;;;5043429;28;20045;-67
2022/09/03 07:13:46;;;;;;;2.28;0.88;;;16.50;99.90;;;;;;5042721;28;20356;-67
2022/09/03 07:16:17;;;;;;;2.47;0.90;;;16.60;99.90;;;;;;5035336;28;20151;-68
2022/09/03 07:18:44;;;;;;;2.37;0.80;;;16.50;99.90;;;;;;5022112;28;20041;-67
2022/09/03 07:21:15;;;;;;;2.72;0.98;;;16.60;99.90;;;;;;5044990;28;20044;-67
2022/09/03 07:23:40;;;;;;;;;;;16.70;99.90;;;;;;5024621;28;20132;-67
2022/09/03 07:26:18;;;;;;;2.72;1.10;;;16.70;99.90;;;;;;5026020;28;20442;-68
2022/09/03 07:28:45;;;;;;;3.17;1.15;;;16.80;99.90;;;;;;5019153;28;20083;-67
2022/09/03 07:31:18;;;;;;;4.63;1.02;;;16.90;99.90;;;;;;5046110;28;20037;-67
2022/09/03 07:33:47;;;;;;;2.45;1.30;;;17.00;99.90;;;;;;5042219;28;20146;-68
2022/09/03 07:36:15;;;;;;;2.10;1.00;;;17.00;99.90;;;;;;5035102;28;20052;-69
2022/09/03 07:38:45;;;;;;;2.70;0.90;;;17.00;99.90;;;;;;5037023;28;20044;-67
2022/09/03 07:41:13;;;;;;;2.58;0.85;;;17.00;99.90;;;;;;5043805;28;20044;-67
2022/09/03 07:43:45;;;;;;;1.52;0.60;;;17.10;99.90;;;;;;5023808;28;20411;-68
2022/09/03 07:46:13;;;;;;;3.03;1.00;;;17.20;99.90;;;;;;5034791;28;20126;-68
2022/09/03 07:48:40;;;;;;;1.90;0.90;;;17.30;99.90;;;;;;5020030;28;20373;-67
2022/09/03 07:51:06;;;;;;;3.20;0.80;;;17.40;99.90;;;;;;5023754;28;20585;-68
2022/09/03 07:53:32;;;;;;;4.15;0.73;;;17.50;99.90;;;;;;5010392;28;20037;-67
2022/09/03 07:56:02;;;;;;;2.33;0.77;;;17.50;99.90;;;;;;5042585;28;20087;-67
2022/09/03 07:58:29;;;;;;;3.88;1.02;;;17.60;99.90;;;;;;5025015;28;20133;-68
2022/09/03 08:00:56;;;;;;;4.05;0.50;;;17.80;99.90;;;;;;5023145;28;20094;-67
2022/09/03 08:03:22;;;;;;;2.38;0.95;;;17.80;99.90;;;;;;5040853;28;20037;-71
2022/09/03 08:05:47;;;;;;;1.88;0.80;;;17.90;99.90;;;;;;5043355;28;20105;-68
2022/09/03 08:08:13;;;;;;;3.85;0.85;;;17.90;99.90;;;;;;5025176;28;20381;-67
2022/09/03 08:10:39;;;;;;;2.33;0.70;;;18.00;99.90;;;;;;5022445;28;20053;-68
2022/09/03 08:13:05;;;;;;;3.50;0.77;;;18.10;99.90;;;;;;5041557;28;20143;-67
2022/09/03 08:15:33;;;;;;;3.90;0.85;;;18.10;99.90;;;;;;5025493;28;20140;-68
2022/09/03 08:18:01;;;;;;;2.15;0.82;;;18.20;99.90;;;;;;5025985;28;20124;-68
2022/09/03 08:20:27;;;;;;;2.80;0.85;;;18.30;99.90;;;;;;5023922;28;20176;-67
2022/09/03 08:23:00;;;;;;;3.72;1.13;;;18.20;99.90;;;;;;5021819;28;20560;-68
2022/09/03 08:25:26;;;;;;;3.22;1.00;;;18.30;99.90;;;;;;5024144;28;20052;-68
2022/09/03 08:27:52;;;;;;;1.77;0.70;;;18.30;99.90;;;;;;5007885;28;20037;-69
2022/09/03 08:30:20;;;;;;;2.67;0.70;;;18.30;99.90;;;;;;5012940;28;20127;-68
2022/09/03 08:32:46;;;;;;;3.85;0.70;;;18.30;99.90;;;;;;5023008;28;20056;-68
2022/09/03 08:35:12;;;;;;;2.40;0.70;;;18.40;99.90;;;;;;5039819;28;20049;-68
2022/09/03 08:37:38;;;;;;;4.38;0.88;;;18.50;99.90;;;;;;5008691;28;20045;-67
2022/09/03 08:40:05;;;;;;;4.22;0.95;;;18.50;99.90;;;;;;5041543;28;20043;-68
2022/09/03 08:42:49;;;;;;;2.22;0.80;;;18.40;99.90;;;;;;5006240;28;20096;-68
2022/09/03 08:45:20;;;;;;;3.70;0.90;;;18.60;99.90;;;;;;5024224;28;20054;-68
2022/09/03 08:48:07;;;;;;;2.90;1.00;;;18.60;99.90;;;;;;5001752;28;20164;-67
2022/09/03 08:50:39;;;;;;;3.75;1.00;;;18.70;99.90;;;;;;5023143;28;20053;-68
2022/09/03 08:53:29;;;;;;;2.60;0.70;;;18.80;99.90;;;;;;5021402;28;20048;-68
2022/09/03 08:56:01;;;;;;;1.80;0.50;;;18.90;99.90;;;;;;5020305;28;20137;-68
2022/09/03 08:58:42;;;;;;;1.52;0.77;;;19.00;99.90;;;;;;5005243;28;20037;-69
2022/09/03 09:01:10;;;;;;;2.55;0.90;;;19.20;99.90;;;;;;5020113;28;20054;-69
2022/09/03 09:03:48;;;;;;;2.25;0.90;;;19.40;99.90;;;;;;5021609;28;20083;-69
2022/09/03 09:06:29;;;;;;;5.32;1.20;;;19.40;99.90;;;;;;5010287;28;20206;-70
2022/09/03 09:09:28;;;;;;;3.50;0.93;;;19.40;99.90;;;;;;5013342;28;20124;-69
2022/09/03 09:11:54;;;;;;;3.92;0.80;;;19.30;99.90;;;;;;5019687;28;20042;-69
2022/09/03 09:14:31;;;;;;;4.47;0.70;;;19.40;99.90;;;;;;5020967;28;20052;-69
2022/09/03 09:17:08;;;;;;;4.22;0.80;;;19.40;99.90;;;;;;5003145;28;20159;-68
2022/09/03 09:20:01;;;;;;;4.57;0.80;;;19.60;99.90;;;;;;5019716;28;20048;-70
2022/09/03 09:22:43;;;;;;;2.70;0.70;;;19.70;99.90;;;;;;5018802;28;20042;-69
2022/09/03 09:25:16;;;;;;;4.20;0.60;;;19.60;99.90;;;;;;5022081;28;20413;-69
2022/09/03 09:27:58;;;;;;;5.28;0.63;;;19.60;99.90;;;;;;5001756;28;20046;-68
2022/09/03 09:30:25;;;;;;;2.38;0.80;;;19.70;99.90;;;;;;5025355;28;20378;-69
2022/09/03 09:32:50;;;;;;;2.15;0.63;;;19.70;99.90;;;;;;5022056;28;20049;-69
2022/09/03 09:35:17;;;;;;;2.47;0.70;;;19.80;99.90;;;;;;5023580;28;20048;-69
2022/09/03 09:37:59;;;;;;;2.88;0.70;;;20.00;99.90;;;;;;5008460;28;20045;-69
2022/09/03 09:40:33;;;;;;;;;;;20.10;99.90;;;;;;5023560;28;20481;-70
2022/09/03 09:43:09;;;;;;;5.00;0.73;;;20.10;99.90;;;;;;5019570;28;19974;-69
2022/09/03 09:45:39;;;;;;;3.40;0.77;;;20.20;99.90;;;;;;5029679;28;20062;-70
2022/09/03 09:48:12;;;;;;;4.35;0.85;;;20.20;99.90;;;;;;5024089;28;20562;-70
2022/09/03 09:50:37;;;;;;;2.95;0.73;;;20.20;99.90;;;;;;5040670;28;20056;-69
2022/09/03 09:53:13;;;;;;;4.40;0.65;;;20.10;99.90;;;;;;5019515;28;20033;-69
2022/09/03 09:55:56;;;;;;;2.72;0.73;;;20.30;99.90;;;;;;5040166;28;20055;-69
2022/09/03 09:58:26;;;;;;;1.13;0.65;;;20.40;99.90;;;;;;5009731;28;20045;-69
2022/09/03 10:00:55;;;;;;;1.70;0.80;;;20.50;99.90;;;;;;5047400;28;20574;-70
2022/09/03 10:03:21;;;;;;;2.78;1.00;;;20.60;99.90;;;;;;5011317;28;20051;-70
2022/09/03 10:06:52;;;;;;;5.30;1.02;;;20.70;99.90;;;;;;5047177;28;21327;-70
2022/09/03 10:08:47;;;;;;;2.17;0.65;;;20.80;99.90;;;;;;5038512;28;20127;-69
2022/09/03 10:11:13;;;;;;;5.10;0.73;;;20.90;99.90;;;;;;5029924;28;20412;-70
2022/09/03 10:13:47;;;;;;;3.05;0.65;;;21.10;99.90;;;;;;5028154;28;20043;-70
2022/09/03 10:16:28;;;;;;;5.10;0.70;;;21.00;99.90;;;;;;5003191;28;20052;-70
2022/09/03 10:19:39;;;;;;;5.85;0.50;;;21.20;99.90;;;;;;5024998;28;20065;-70
2022/09/03 10:22:16;;;;;;;2.35;0.82;;;21.20;99.90;;;;;;4992104;28;20058;-70
2022/09/03 10:24:57;;;;;;;3.63;0.70;;;21.40;99.90;;;;;;4993367;28;20046;-71
2022/09/03 10:27:22;;;;;;;3.97;0.65;;;21.40;99.90;;;;;;4992937;28;20061;-70
2022/09/03 10:29:49;;;;;;;3.33;0.80;;;21.60;99.80;;;;;;5045818;28;20446;-72
2022/09/03 10:32:24;;;;;;;4.85;0.60;;;21.70;98.80;;;;;;5027603;28;20501;-70
2022/09/03 10:35:28;;;;;;;2.25;0.65;;;21.60;98.90;;;;;;5029510;28;20480;-70
2022/09/03 10:38:24;;;;;;;3.05;0.60;;;21.80;99.80;;;;;;5026934;28;20458;-69
2022/09/03 10:41:09;;;;;;;4.45;0.70;;;21.80;97.80;;;;;;5027205;28;20110;-70
2022/09/03 10:43:57;;;;;;;4.60;0.52;;;21.80;98.90;;;;;;5048061;28;20091;-70
2022/09/03 10:46:27;;;;;;;2.67;0.68;;;21.80;97.50;;;;;;5014623;28;20171;-72
2022/09/03 10:49:12;;;;;;;3.17;0.65;;;22.10;97.70;;;;;;5042695;28;20053;-70
2022/09/03 10:51:48;;;;;;;6.75;0.85;;;22.00;96.70;;;;;;5029445;28;20064;-70
2022/09/03 10:54:25;;;;;;;2.53;0.70;;;22.00;96.40;;;;;;5046389;28;20147;-72
2022/09/03 10:56:51;;;;;;;1.45;0.70;;;22.10;96.40;;;;;;5030878;28;20048;-71
2022/09/03 10:59:57;;;;;;;3.25;0.70;;;22.20;97.00;;;;;;5049345;28;20056;-70
2022/09/03 11:02:35;;;;;;;2.03;0.70;;;22.40;95.90;;;;;;5043464;28;20048;-71
2022/09/03 11:05:22;;;;;;;3.30;0.52;;;22.40;95.20;;;;;;5046976;28;20143;-70
2022/09/03 11:07:54;;;;;;;3.67;0.68;;;22.50;95.80;;;;;;5013149;28;20053;-71
2022/09/03 11:10:32;;;;;;;4.00;0.70;;;22.60;94.40;;;;;;5033754;28;20102;-71
2022/09/03 11:13:09;;;;;;;5.50;0.60;;;22.50;93.90;;;;;;5044023;28;20500;-70
2022/09/03 11:15:52;;;;;;;3.88;0.43;;;22.70;93.60;;;;;;5042063;28;20411;-72
2022/09/03 11:18:24;;;;;;;1.10;0.60;;;22.60;92.30;;;;;;5025711;28;20045;-71
2022/09/03 11:20:54;;;;;;;4.47;0.60;;;22.60;91.60;;;;;;5044974;28;20403;-70
2022/09/03 11:23:22;;;;;;;6.00;0.73;;;22.70;91.70;;;;;;5042793;28;20041;-71
2022/09/03 11:25:55;;;;;;;5.43;0.60;;;22.80;93.60;;;;;;5045899;28;20049;-70
2022/09/03 11:28:47;;;;;;;5.55;0.52;;;22.80;91.10;;;;;;5022718;28;20037;-71
2022/09/03 11:31:46;;;;;;;2.22;0.47;;;22.90;90.40;;;;;;5045202;28;20136;-70
2022/09/03 11:34:46;;;;;;;5.47;0.65;;;23.00;90.20;;;;;;5043028;28;20078;-71
2022/09/03 11:37:21;;;;;;;2.58;0.47;;;23.10;89.70;;;;;;5024632;28;20095;-71
2022/09/03 11:39:57;;;;;;;1.80;0.50;;;23.10;89.90;;;;;;5023515;28;20037;-71
2022/09/03 11:42:44;;;;;;;3.05;0.60;;;23.10;87.10;;;;;;5040428;28;20048;-70
2022/09/03 11:45:30;;;;;;;6.43;0.90;;;23.00;87.10;;;;;;5043158;28;20406;-71
2022/09/03 11:47:57;;;;;;;6.45;0.55;;;23.20;84.50;;;;;;5022232;28;20081;-71
2022/09/03 11:50:30;;;;;;;4.07;0.70;;;23.30;85.00;;;;;;5041962;28;20434;-71
2022/09/03 11:53:15;;;;;;;4.68;0.43;;;23.20;82.90;;;;;;5041758;28;20052;-71
2022/09/03 11:56:06;;;;;;;1.95;0.50;;;23.20;82.60;;;;;;5043789;28;20055;-71
2022/09/03 11:58:35;;;;;;;3.78;0.43;;;23.20;82.10;;;;;;5026937;28;20045;-71
2022/09/03 12:01:04;;;;;;;1.58;0.55;;;23.30;84.00;;;;;;5005283;28;20042;-70
2022/09/03 12:03:42;;;;;;;2.67;0.50;;;23.30;82.00;;;;;;5026747;28;20046;-71
2022/09/03 12:06:23;;;;;;;6.70;0.60;;;23.30;80.00;;;;;;5037755;28;20095;-73
2022/09/03 12:09:14;;;;;;;2.67;0.50;;;23.40;79.90;;;;;;5019122;28;20508;-72
2022/09/03 12:11:45;;;;;;;3.78;0.40;;;23.30;77.50;;;;;;5041483;28;20036;-71
2022/09/03 12:14:20;;;;;;;3.15;0.47;;;23.40;80.10;;;;;;5024520;28;20053;-71
2022/09/03 12:17:07;;;;;;;6.18;0.60;;;23.30;77.50;;;;;;5009309;28;20053;-72
2022/09/03 12:19:52;;;;;;;4.10;0.60;;;23.50;79.00;;;;;;5042769;28;20415;-70
2022/09/03 12:22:20;;;;;;;3.83;0.60;;;23.40;77.00;;;;;;5044181;28;20136;-70
2022/09/03 12:24:46;;;;;;;2.72;0.50;;;23.30;77.50;;;;;;5026024;28;20040;-72
2022/09/03 12:27:23;;;;;;;1.58;0.40;;;23.50;78.20;;;;;;5023077;28;20785;-70
2022/09/03 12:30:00;;;;;;;1.50;0.47;;;23.50;75.40;;;;;;5041818;28;20551;-70
2022/09/03 12:32:35;;;;;;;4.25;0.50;;;23.60;74.80;;;;;;5040654;28;20044;-71
2022/09/03 12:35:13;;;;;;;2.05;0.52;;;23.60;76.30;;;;;;5043415;28;20045;-71
2022/09/03 12:37:44;;;;;;;1.83;0.30;;;23.60;74.40;;;;;;5006427;28;20057;-71
2022/09/03 12:40:42;;;;;;;;;;;23.50;74.80;;;;;;5022683;28;20072;-71
2022/09/03 12:43:16;;;;;;;4.38;0.50;;;23.40;73.40;;;;;;4974141;28;20234;-70
2022/09/03 12:45:47;;;;;;;2.50;0.32;;;23.50;72.00;;;;;;5007171;28;20053;-70
2022/09/03 12:48:18;;;;;;;;;;;23.50;72.50;;;;;;5021732;28;20069;-71
2022/09/03 12:50:45;;;;;;;2.60;0.50;;;23.60;72.50;;;;;;5039321;28;19957;-70
2022/09/03 12:53:20;;;;;;;1.80;0.45;;;23.50;72.80;;;;;;5042042;28;20057;-71
2022/09/03 12:55:51;;;;;;;3.20;0.45;;;23.50;73.10;;;;;;5023387;28;20467;-71
2022/09/03 12:58:20;;;;;;;3.63;0.40;;;23.50;71.90;;;;;;5023499;28;20412;-71
2022/09/03 13:00:51;;;;;;;3.42;0.68;;;23.50;72.20;;;;;;5022111;28;20520;-71
2022/09/03 13:03:40;;;;;;;2.47;0.32;;;23.50;73.20;;;;;;5041665;28;20049;-71
2022/09/03 13:06:12;;;;;;;1.50;0.50;;;23.50;72.30;;;;;;5011029;28;20131;-73
2022/09/03 13:08:47;;;;;;;1.90;0.57;;;23.50;72.70;;;;;;5031637;28;20037;-70
2022/09/03 13:11:17;;;;;;;1.42;0.50;;;23.60;72.10;;;;;;5043701;28;20085;-70
2022/09/03 13:13:59;;;;;;;2.00;0.60;;;23.60;72.30;;;;;;5040880;28;20076;-71
2022/09/03 13:16:43;;;;;;;3.08;0.40;;;23.50;71.10;;;;;;5009587;28;20874;-71
2022/09/03 13:19:09;;;;;;;1.98;0.40;;;23.50;72.10;;;;;;5039391;28;20063;-72